sensor_id;sensor_type;location;lat;lon;timestamp;pressure;altitude;pressure_sealevel;temperature;humidity
70127;BME280;57491;42.694;23.314;2023-10-09T00:01:50;95596.06;;;19.76;49.07
70127;BME280;57491;42.694;23.314;2023-10-09T00:04:18;95595.72;;;19.84;49.73
70127;BME280;57491;42.694;23.314;2023-10-09T00:06:47;95597.22;;;19.80;48.97
70127;BME280;57491;42.694;23.314;2023-10-09T00:09:15;95595.59;;;19.79;48.96
70127;BME280;57491;42.694;23.314;2023-10-09T00:11:56;95594.09;;;19.71;49.37
70127;BME280;57491;42.694;23.314;2023-10-09T00:14:24;95600.84;;;19.67;49.20
70127;BME280;57491;42.694;23.314;2023-10-09T00:16:52;95596.06;;;19.57;49.28
70127;BME280;57491;42.694;23.314;2023-10-09T00:19:31;95586.75;;;19.55;49.29
70127;BME280;57491;42.694;23.314;2023-10-09T00:22:00;95593.97;;;19.48;49.13
70127;BME280;57491;42.694;23.314;2023-10-09T00:24:36;95600.59;;;19.50;49.71
70127;BME280;57491;42.694;23.314;2023-10-09T00:27:10;95597.81;;;19.45;49.50
70127;BME280;57491;42.694;23.314;2023-10-09T00:29:38;95596.06;;;19.39;49.76
70127;BME280;57491;42.694;23.314;2023-10-09T00:32:10;95582.06;;;19.21;49.98
70127;BME280;57491;42.694;23.314;2023-10-09T00:34:48;95585.06;;;19.24;49.47
70127;BME280;57491;42.694;23.314;2023-10-09T00:37:18;95589.63;;;19.17;49.87
70127;BME280;57491;42.694;23.314;2023-10-09T00:39:49;95581.19;;;19.08;50.10
70127;BME280;57491;42.694;23.314;2023-10-09T00:42:22;95594.94;;;19.10;50.30
70127;BME280;57491;42.694;23.314;2023-10-09T00:44:55;95591.13;;;19.06;50.48
70127;BME280;57491;42.694;23.314;2023-10-09T00:47:23;95583.69;;;19.03;50.18
70127;BME280;57491;42.694;23.314;2023-10-09T00:49:54;95587.34;;;19.02;51.11
70127;BME280;57491;42.694;23.314;2023-10-09T00:52:29;95590.63;;;18.98;50.41
70127;BME280;57491;42.694;23.314;2023-10-09T00:55:06;95590.63;;;18.98;50.11
70127;BME280;57491;42.694;23.314;2023-10-09T00:57:41;95597.41;;;18.87;49.94
70127;BME280;57491;42.694;23.314;2023-10-09T01:00:14;95596.88;;;18.79;50.40
70127;BME280;57491;42.694;23.314;2023-10-09T01:02:59;95598.66;;;18.60;50.30
70127;BME280;57491;42.694;23.314;2023-10-09T01:05:45;95602.91;;;18.36;51.01
70127;BME280;57491;42.694;23.314;2023-10-09T01:08:19;95611.91;;;18.22;51.00
70127;BME280;57491;42.694;23.314;2023-10-09T01:10:58;95618.81;;;18.16;50.76
70127;BME280;57491;42.694;23.314;2023-10-09T01:13:36;95619.66;;;18.10;51.27
70127;BME280;57491;42.694;23.314;2023-10-09T01:16:20;95639.03;;;18.22;51.92
70127;BME280;57491;42.694;23.314;2023-10-09T01:18:49;95637.97;;;18.30;50.74
70127;BME280;57491;42.694;23.314;2023-10-09T01:21:17;95631.03;;;18.36;50.57
70127;BME280;57491;42.694;23.314;2023-10-09T01:23:48;95633.31;;;18.25;49.90
70127;BME280;57491;42.694;23.314;2023-10-09T01:26:29;95629.16;;;18.11;50.42
70127;BME280;57491;42.694;23.314;2023-10-09T01:29:00;95647.84;;;18.03;50.57
70127;BME280;57491;42.694;23.314;2023-10-09T01:31:27;95659.59;;;18.01;50.90
70127;BME280;57491;42.694;23.314;2023-10-09T01:34:08;95659.81;;;17.93;50.72
70127;BME280;57491;42.694;23.314;2023-10-09T01:36:36;95657.88;;;17.81;50.77
70127;BME280;57491;42.694;23.314;2023-10-09T01:39:06;95660.69;;;17.80;50.93
70127;BME280;57491;42.694;23.314;2023-10-09T01:41:47;95651.44;;;17.71;51.67
70127;BME280;57491;42.694;23.314;2023-10-09T01:44:17;95651.84;;;17.68;51.83
70127;BME280;57491;42.694;23.314;2023-10-09T01:46:45;95665.19;;;17.73;51.66
70127;BME280;57491;42.694;23.314;2023-10-09T01:49:12;95675.34;;;17.63;51.40
70127;BME280;57491;42.694;23.314;2023-10-09T01:51:47;95647.63;;;17.54;52.35
70127;BME280;57491;42.694;23.314;2023-10-09T01:54:17;95683.78;;;17.78;50.57
70127;BME280;57491;42.694;23.314;2023-10-09T01:56:59;95678.91;;;17.75;50.58
70127;BME280;57491;42.694;23.314;2023-10-09T01:59:32;95675.34;;;17.43;50.85
70127;BME280;57491;42.694;23.314;2023-10-09T02:02:02;95702.06;;;17.47;51.50
70127;BME280;57491;42.694;23.314;2023-10-09T02:04:39;95712.75;;;17.52;50.64
70127;BME280;57491;42.694;23.314;2023-10-09T02:07:07;95698.63;;;17.39;50.64
70127;BME280;57491;42.694;23.314;2023-10-09T02:09:36;95712.38;;;17.42;51.38
70127;BME280;57491;42.694;23.314;2023-10-09T02:12:11;95702.69;;;17.42;51.72
70127;BME280;57491;42.694;23.314;2023-10-09T02:14:39;95704.31;;;17.23;50.59
70127;BME280;57491;42.694;23.314;2023-10-09T02:17:07;95698.66;;;17.13;51.56
70127;BME280;57491;42.694;23.314;2023-10-09T02:19:44;95702.31;;;17.06;51.70
70127;BME280;57491;42.694;23.314;2023-10-09T02:22:14;95706.75;;;16.99;51.40
70127;BME280;57491;42.694;23.314;2023-10-09T02:24:43;95701.13;;;16.88;51.94
70127;BME280;57491;42.694;23.314;2023-10-09T02:27:23;95701.13;;;16.82;52.73
70127;BME280;57491;42.694;23.314;2023-10-09T02:30:12;95719.09;;;16.78;52.57
70127;BME280;57491;42.694;23.314;2023-10-09T02:32:53;95728.38;;;16.74;52.43
70127;BME280;57491;42.694;23.314;2023-10-09T02:35:32;95740.28;;;16.64;52.82
70127;BME280;57491;42.694;23.314;2023-10-09T02:38:04;95740.63;;;16.47;53.21
70127;BME280;57491;42.694;23.314;2023-10-09T02:40:39;95756.19;;;16.56;53.45
70127;BME280;57491;42.694;23.314;2023-10-09T02:43:12;95752.50;;;16.37;53.20
70127;BME280;57491;42.694;23.314;2023-10-09T02:45:44;95755.16;;;16.43;53.47
70127;BME280;57491;42.694;23.314;2023-10-09T02:48:17;95756.75;;;16.44;53.53
70127;BME280;57491;42.694;23.314;2023-10-09T02:50:46;95750.31;;;16.53;53.63
70127;BME280;57491;42.694;23.314;2023-10-09T02:53:16;95754.56;;;16.55;53.44
70127;BME280;57491;42.694;23.314;2023-10-09T02:55:56;95743.44;;;16.46;53.52
70127;BME280;57491;42.694;23.314;2023-10-09T02:58:38;95752.31;;;16.45;53.76
70127;BME280;57491;42.694;23.314;2023-10-09T03:01:10;95750.69;;;16.44;53.51
70127;BME280;57491;42.694;23.314;2023-10-09T03:03:40;95757.34;;;16.40;53.83
70127;BME280;57491;42.694;23.314;2023-10-09T03:06:11;95757.94;;;16.35;53.41
70127;BME280;57491;42.694;23.314;2023-10-09T03:08:39;95745.59;;;16.23;53.87
70127;BME280;57491;42.694;23.314;2023-10-09T03:11:08;95771.66;;;16.31;54.18
70127;BME280;57491;42.694;23.314;2023-10-09T03:13:41;95767.63;;;16.28;53.94
70127;BME280;57491;42.694;23.314;2023-10-09T03:16:11;95781.16;;;16.25;53.87
70127;BME280;57491;42.694;23.314;2023-10-09T03:18:46;95788.22;;;16.25;53.85
70127;BME280;57491;42.694;23.314;2023-10-09T03:21:13;95782.53;;;16.21;54.45
70127;BME280;57491;42.694;23.314;2023-10-09T03:23:43;95769.00;;;16.11;53.72
70127;BME280;57491;42.694;23.314;2023-10-09T03:26:12;95785.72;;;16.17;54.68
70127;BME280;57491;42.694;23.314;2023-10-09T03:28:39;95779.47;;;16.11;53.30
70127;BME280;57491;42.694;23.314;2023-10-09T03:31:08;95791.38;;;16.07;56.22
70127;BME280;57491;42.694;23.314;2023-10-09T03:33:36;95792.97;;;16.08;54.62
70127;BME280;57491;42.694;23.314;2023-10-09T03:36:04;95769.47;;;15.87;53.58
70127;BME280;57491;42.694;23.314;2023-10-09T03:38:35;95806.47;;;16.05;53.88
70127;BME280;57491;42.694;23.314;2023-10-09T03:41:02;95790.28;;;15.95;53.52
70127;BME280;57491;42.694;23.314;2023-10-09T03:43:35;95795.94;;;15.92;53.56
70127;BME280;57491;42.694;23.314;2023-10-09T03:46:04;95798.31;;;15.87;55.24
70127;BME280;57491;42.694;23.314;2023-10-09T03:48:39;95801.69;;;15.81;53.07
70127;BME280;57491;42.694;23.314;2023-10-09T03:51:09;95808.34;;;15.77;53.69
70127;BME280;57491;42.694;23.314;2023-10-09T03:53:38;95817.66;;;15.86;56.92
70127;BME280;57491;42.694;23.314;2023-10-09T03:56:07;95812.81;;;15.83;53.23
70127;BME280;57491;42.694;23.314;2023-10-09T03:58:39;95811.53;;;15.72;53.16
70127;BME280;57491;42.694;23.314;2023-10-09T04:01:09;95819.38;;;15.66;53.98
70127;BME280;57491;42.694;23.314;2023-10-09T04:03:48;95812.91;;;15.61;53.87
70127;BME280;57491;42.694;23.314;2023-10-09T04:06:15;95815.53;;;15.61;53.47
70127;BME280;57491;42.694;23.314;2023-10-09T04:08:44;95800.50;;;15.49;53.54
70127;BME280;57491;42.694;23.314;2023-10-09T04:11:15;95812.56;;;15.50;53.36
70127;BME280;57491;42.694;23.314;2023-10-09T04:13:50;95812.53;;;15.43;53.07
70127;BME280;57491;42.694;23.314;2023-10-09T04:16:19;95818.91;;;15.34;53.55
70127;BME280;57491;42.694;23.314;2023-10-09T04:19:01;95820.06;;;15.25;53.40
70127;BME280;57491;42.694;23.314;2023-10-09T04:21:37;95827.28;;;15.23;53.50
70127;BME280;57491;42.694;23.314;2023-10-09T04:24:05;95820.97;;;15.17;52.38
70127;BME280;57491;42.694;23.314;2023-10-09T04:26:51;95825.88;;;15.21;53.12
70127;BME280;57491;42.694;23.314;2023-10-09T04:29:24;95825.22;;;15.18;52.86
70127;BME280;57491;42.694;23.314;2023-10-09T04:32:03;95816.25;;;15.06;52.67
70127;BME280;57491;42.694;23.314;2023-10-09T04:34:34;95830.78;;;15.09;52.29
70127;BME280;57491;42.694;23.314;2023-10-09T04:37:02;95811.34;;;14.97;51.98
70127;BME280;57491;42.694;23.314;2023-10-09T04:39:45;95827.22;;;14.95;53.47
70127;BME280;57491;42.694;23.314;2023-10-09T04:42:26;95827.69;;;14.99;52.21
70127;BME280;57491;42.694;23.314;2023-10-09T04:45:05;95818.91;;;14.85;52.17
70127;BME280;57491;42.694;23.314;2023-10-09T04:48:01;95832.03;;;14.92;51.37
70127;BME280;57491;42.694;23.314;2023-10-09T04:50:33;95835.53;;;14.99;51.67
70127;BME280;57491;42.694;23.314;2023-10-09T04:53:14;95833.53;;;15.01;51.93
70127;BME280;57491;42.694;23.314;2023-10-09T04:55:50;95803.19;;;14.85;51.44
70127;BME280;57491;42.694;23.314;2023-10-09T04:58:20;95832.03;;;15.13;51.05
70127;BME280;57491;42.694;23.314;2023-10-09T05:00:55;95834.31;;;15.23;50.70
70127;BME280;57491;42.694;23.314;2023-10-09T05:03:41;95838.63;;;15.30;50.80
70127;BME280;57491;42.694;23.314;2023-10-09T05:06:18;95843.25;;;15.28;49.46
70127;BME280;57491;42.694;23.314;2023-10-09T05:09:11;95843.22;;;15.22;50.70
70127;BME280;57491;42.694;23.314;2023-10-09T05:11:46;95848.91;;;15.32;49.67
70127;BME280;57491;42.694;23.314;2023-10-09T05:14:41;95851.63;;;15.45;52.53
70127;BME280;57491;42.694;23.314;2023-10-09T05:17:29;95854.66;;;15.42;48.54
70127;BME280;57491;42.694;23.314;2023-10-09T05:20:00;95848.72;;;15.33;48.51
70127;BME280;57491;42.694;23.314;2023-10-09T05:22:41;95849.38;;;15.35;50.70
70127;BME280;57491;42.694;23.314;2023-10-09T05:25:23;95849.25;;;15.50;48.94
70127;BME280;57491;42.694;23.314;2023-10-09T05:28:04;95860.34;;;15.73;47.80
70127;BME280;57491;42.694;23.314;2023-10-09T05:30:45;95870.34;;;15.91;48.73
70127;BME280;57491;42.694;23.314;2023-10-09T05:33:22;95871.88;;;16.13;46.37
70127;BME280;57491;42.694;23.314;2023-10-09T05:35:55;95888.16;;;16.30;45.55
70127;BME280;57491;42.694;23.314;2023-10-09T05:38:40;95880.97;;;16.51;44.30
70127;BME280;57491;42.694;23.314;2023-10-09T05:41:12;95888.53;;;16.68;46.75
70127;BME280;57491;42.694;23.314;2023-10-09T05:44:13;95889.78;;;16.78;44.16
70127;BME280;57491;42.694;23.314;2023-10-09T05:47:10;95897.31;;;16.88;43.13
70127;BME280;57491;42.694;23.314;2023-10-09T05:49:56;95901.94;;;16.86;42.77
70127;BME280;57491;42.694;23.314;2023-10-09T05:52:48;95904.00;;;16.97;42.66
70127;BME280;57491;42.694;23.314;2023-10-09T05:55:32;95923.00;;;17.12;42.90
70127;BME280;57491;42.694;23.314;2023-10-09T05:58:17;95925.25;;;17.22;43.17
70127;BME280;57491;42.694;23.314;2023-10-09T06:01:01;95917.81;;;17.38;41.38
70127;BME280;57491;42.694;23.314;2023-10-09T06:03:52;95917.59;;;17.40;40.64
70127;BME280;57491;42.694;23.314;2023-10-09T06:06:31;95921.66;;;17.42;40.42
70127;BME280;57491;42.694;23.314;2023-10-09T06:09:09;95929.75;;;17.48;40.37
70127;BME280;57491;42.694;23.314;2023-10-09T06:11:53;95924.75;;;17.59;40.45
70127;BME280;57491;42.694;23.314;2023-10-09T06:14:42;95941.75;;;17.83;40.56
70127;BME280;57491;42.694;23.314;2023-10-09T06:17:24;95944.78;;;18.00;39.88
70127;BME280;57491;42.694;23.314;2023-10-09T06:20:09;95935.66;;;18.02;38.43
70127;BME280;57491;42.694;23.314;2023-10-09T06:23:11;95923.34;;;17.83;38.18
70127;BME280;57491;42.694;23.314;2023-10-09T06:25:49;95940.50;;;18.18;39.30
70127;BME280;57491;42.694;23.314;2023-10-09T06:28:18;95922.88;;;18.32;40.19
70127;BME280;57491;42.694;23.314;2023-10-09T06:30:45;95960.03;;;18.75;36.51
70127;BME280;57491;42.694;23.314;2023-10-09T06:33:13;95948.25;;;18.91;35.24
70127;BME280;57491;42.694;23.314;2023-10-09T06:35:46;95953.91;;;18.94;35.59
70127;BME280;57491;42.694;23.314;2023-10-09T06:38:21;95948.19;;;19.04;36.35
70127;BME280;57491;42.694;23.314;2023-10-09T06:40:49;95922.34;;;18.81;35.76
70127;BME280;57491;42.694;23.314;2023-10-09T06:43:42;95933.75;;;19.06;35.07
70127;BME280;57491;42.694;23.314;2023-10-09T06:46:16;95938.88;;;19.33;36.40
70127;BME280;57491;42.694;23.314;2023-10-09T06:49:03;95941.72;;;19.69;33.92
70127;BME280;57491;42.694;23.314;2023-10-09T06:51:55;95945.72;;;19.78;33.95
70127;BME280;57491;42.694;23.314;2023-10-09T06:54:43;95946.44;;;19.92;33.37
70127;BME280;57491;42.694;23.314;2023-10-09T06:57:17;95945.91;;;20.08;32.92
70127;BME280;57491;42.694;23.314;2023-10-09T07:00:07;95934.09;;;20.11;33.71
70127;BME280;57491;42.694;23.314;2023-10-09T07:03:02;95946.72;;;20.27;31.82
70127;BME280;57491;42.694;23.314;2023-10-09T07:05:37;95943.84;;;20.10;31.68
70127;BME280;57491;42.694;23.314;2023-10-09T07:08:25;95944.63;;;19.86;31.91
70127;BME280;57491;42.694;23.314;2023-10-09T07:11:00;95956.91;;;20.23;31.89
70127;BME280;57491;42.694;23.314;2023-10-09T07:13:46;95952.13;;;20.38;30.89
70127;BME280;57491;42.694;23.314;2023-10-09T07:16:20;95956.63;;;20.74;30.73
70127;BME280;57491;42.694;23.314;2023-10-09T07:18:55;95952.53;;;20.60;30.38
70127;BME280;57491;42.694;23.314;2023-10-09T07:21:35;95940.63;;;20.69;30.82
70127;BME280;57491;42.694;23.314;2023-10-09T07:24:05;95948.41;;;21.01;30.25
70127;BME280;57491;42.694;23.314;2023-10-09T07:26:44;95960.91;;;20.75;29.75
70127;BME280;57491;42.694;23.314;2023-10-09T07:29:19;95953.53;;;20.96;30.24
70127;BME280;57491;42.694;23.314;2023-10-09T07:31:49;95946.69;;;21.24;29.98
70127;BME280;57491;42.694;23.314;2023-10-09T07:34:24;95958.00;;;21.61;28.83
70127;BME280;57491;42.694;23.314;2023-10-09T07:36:58;95941.41;;;21.66;28.93
70127;BME280;57491;42.694;23.314;2023-10-09T07:39:30;95954.16;;;21.99;28.53
70127;BME280;57491;42.694;23.314;2023-10-09T07:42:04;95938.81;;;21.77;28.08
70127;BME280;57491;42.694;23.314;2023-10-09T07:45:00;95952.53;;;21.98;28.53
70127;BME280;57491;42.694;23.314;2023-10-09T07:47:38;95953.63;;;22.32;27.76
70127;BME280;57491;42.694;23.314;2023-10-09T07:50:28;95942.06;;;22.61;27.15
70127;BME280;57491;42.694;23.314;2023-10-09T07:53:04;95946.78;;;22.94;26.75
70127;BME280;57491;42.694;23.314;2023-10-09T07:55:44;95943.28;;;23.05;26.42
70127;BME280;57491;42.694;23.314;2023-10-09T07:58:21;95948.97;;;23.25;25.85
70127;BME280;57491;42.694;23.314;2023-10-09T08:00:52;95952.00;;;23.17;25.30
70127;BME280;57491;42.694;23.314;2023-10-09T08:03:34;95954.25;;;23.37;25.30
70127;BME280;57491;42.694;23.314;2023-10-09T08:06:01;95957.19;;;23.52;24.97
70127;BME280;57491;42.694;23.314;2023-10-09T08:08:53;95957.38;;;23.45;24.04
70127;BME280;57491;42.694;23.314;2023-10-09T08:11:39;95960.72;;;23.29;24.26
70127;BME280;57491;42.694;23.314;2023-10-09T08:14:27;95961.31;;;23.31;24.96
70127;BME280;57491;42.694;23.314;2023-10-09T08:17:08;95946.19;;;23.32;24.85
70127;BME280;57491;42.694;23.314;2023-10-09T08:19:42;95949.28;;;23.40;24.40
70127;BME280;57491;42.694;23.314;2023-10-09T08:22:23;95938.34;;;23.98;25.42
70127;BME280;57491;42.694;23.314;2023-10-09T08:25:19;95943.34;;;24.45;24.65
70127;BME280;57491;42.694;23.314;2023-10-09T08:27:59;95936.81;;;24.53;23.40
70127;BME280;57491;42.694;23.314;2023-10-09T08:30:46;95936.81;;;24.74;23.35
70127;BME280;57491;42.694;23.314;2023-10-09T08:33:29;95935.25;;;24.57;23.39
70127;BME280;57491;42.694;23.314;2023-10-09T08:36:07;95926.41;;;24.73;22.81
70127;BME280;57491;42.694;23.314;2023-10-09T08:38:35;95917.03;;;24.65;22.62
70127;BME280;57491;42.694;23.314;2023-10-09T08:41:10;95909.19;;;24.54;22.65
70127;BME280;57491;42.694;23.314;2023-10-09T08:43:47;95906.31;;;24.60;22.18
70127;BME280;57491;42.694;23.314;2023-10-09T08:46:20;95897.97;;;24.90;22.69
70127;BME280;57491;42.694;23.314;2023-10-09T08:48:48;95893.47;;;24.96;22.76
70127;BME280;57491;42.694;23.314;2023-10-09T08:51:17;95898.53;;;25.72;23.24
70127;BME280;57491;42.694;23.314;2023-10-09T08:53:46;95906.09;;;26.17;20.79
70127;BME280;57491;42.694;23.314;2023-10-09T08:56:13;95875.47;;;26.20;20.58
70127;BME280;57491;42.694;23.314;2023-10-09T08:58:49;95901.44;;;26.35;20.62
70127;BME280;57491;42.694;23.314;2023-10-09T09:01:17;95904.97;;;26.92;20.31
70127;BME280;57491;42.694;23.314;2023-10-09T09:03:49;95904.19;;;27.02;19.70
70127;BME280;57491;42.694;23.314;2023-10-09T09:06:18;95879.78;;;26.78;19.47
70127;BME280;57491;42.694;23.314;2023-10-09T09:08:46;95892.72;;;27.12;19.56
70127;BME280;57491;42.694;23.314;2023-10-09T09:11:14;95898.59;;;27.08;19.23
70127;BME280;57491;42.694;23.314;2023-10-09T09:13:44;95908.81;;;27.32;18.58
70127;BME280;57491;42.694;23.314;2023-10-09T09:16:16;95868.19;;;27.10;17.38
70127;BME280;57491;42.694;23.314;2023-10-09T09:18:53;95904.72;;;26.99;18.23
70127;BME280;57491;42.694;23.314;2023-10-09T09:21:30;95909.81;;;27.16;20.14
70127;BME280;57491;42.694;23.314;2023-10-09T09:24:04;95908.06;;;27.46;19.24
70127;BME280;57491;42.694;23.314;2023-10-09T09:26:41;95897.69;;;27.95;19.35
70127;BME280;57491;42.694;23.314;2023-10-09T09:29:12;95875.97;;;28.53;17.78
70127;BME280;57491;42.694;23.314;2023-10-09T09:31:53;95894.88;;;28.87;16.91
70127;BME280;57491;42.694;23.314;2023-10-09T09:34:23;95886.97;;;28.06;16.69
70127;BME280;57491;42.694;23.314;2023-10-09T09:36:57;95877.91;;;27.96;17.09
70127;BME280;57491;42.694;23.314;2023-10-09T09:39:26;95878.44;;;27.93;16.92
70127;BME280;57491;42.694;23.314;2023-10-09T09:41:58;95876.88;;;28.13;18.35
70127;BME280;57491;42.694;23.314;2023-10-09T09:44:33;95866.09;;;28.43;16.79
70127;BME280;57491;42.694;23.314;2023-10-09T09:47:09;95881.69;;;29.00;17.34
70127;BME280;57491;42.694;23.314;2023-10-09T09:49:42;95882.38;;;29.70;16.24
70127;BME280;57491;42.694;23.314;2023-10-09T09:52:10;95880.84;;;29.98;15.77
70127;BME280;57491;42.694;23.314;2023-10-09T09:54:38;95869.50;;;30.35;15.17
70127;BME280;57491;42.694;23.314;2023-10-09T09:57:07;95873.00;;;30.59;14.56
70127;BME280;57491;42.694;23.314;2023-10-09T09:59:39;95860.00;;;29.51;15.47
70127;BME280;57491;42.694;23.314;2023-10-09T10:02:20;95840.50;;;29.79;15.28
70127;BME280;57491;42.694;23.314;2023-10-09T10:04:54;95847.47;;;30.38;15.07
70127;BME280;57491;42.694;23.314;2023-10-09T10:07:24;95847.03;;;30.54;15.44
70127;BME280;57491;42.694;23.314;2023-10-09T10:09:54;95828.72;;;31.04;14.96
70127;BME280;57491;42.694;23.314;2023-10-09T10:16:05;95828.72;;;32.25;13.46
70127;BME280;57491;42.694;23.314;2023-10-09T10:18:55;95821.25;;;32.36;13.51
70127;BME280;57491;42.694;23.314;2023-10-09T10:21:49;95822.19;;;32.72;13.50
70127;BME280;57491;42.694;23.314;2023-10-09T10:24:40;95810.09;;;31.82;12.07
70127;BME280;57491;42.694;23.314;2023-10-09T10:27:21;95802.31;;;31.11;13.13
70127;BME280;57491;42.694;23.314;2023-10-09T10:30:27;95790.91;;;31.19;14.05
70127;BME280;57491;42.694;23.314;2023-10-09T10:33:00;95789.81;;;31.20;14.54
70127;BME280;57491;42.694;23.314;2023-10-09T10:35:36;95771.53;;;31.55;14.02
70127;BME280;57491;42.694;23.314;2023-10-09T10:38:29;95767.72;;;32.48;13.20
70127;BME280;57491;42.694;23.314;2023-10-09T10:41:10;95776.88;;;33.46;13.27
70127;BME280;57491;42.694;23.314;2023-10-09T10:43:40;95761.09;;;34.06;12.38
70127;BME280;57491;42.694;23.314;2023-10-09T10:46:28;95757.09;;;35.00;11.66
70127;BME280;57491;42.694;23.314;2023-10-09T10:49:01;95750.72;;;35.13;11.57
70127;BME280;57491;42.694;23.314;2023-10-09T10:51:42;95753.38;;;35.90;11.23
70127;BME280;57491;42.694;23.314;2023-10-09T10:54:22;95742.78;;;36.52;10.91
70127;BME280;57491;42.694;23.314;2023-10-09T10:57:17;95745.97;;;37.04;10.80
70127;BME280;57491;42.694;23.314;2023-10-09T10:59:56;95743.72;;;36.86;11.46
70127;BME280;57491;42.694;23.314;2023-10-09T11:02:50;95736.34;;;37.69;10.41
70127;BME280;57491;42.694;23.314;2023-10-09T11:05:18;95746.63;;;38.09;10.14
70127;BME280;57491;42.694;23.314;2023-10-09T11:07:51;95745.94;;;38.24;9.38
70127;BME280;57491;42.694;23.314;2023-10-09T11:10:25;95735.56;;;38.14;10.12
70127;BME280;57491;42.694;23.314;2023-10-09T11:12:57;95730.91;;;38.75;10.82
70127;BME280;57491;42.694;23.314;2023-10-09T11:15:53;95713.69;;;39.23;9.09
70127;BME280;57491;42.694;23.314;2023-10-09T11:18:41;95711.53;;;39.56;8.96
70127;BME280;57491;42.694;23.314;2023-10-09T11:21:13;95701.13;;;39.74;9.28
70127;BME280;57491;42.694;23.314;2023-10-09T11:24:00;95684.97;;;40.28;8.77
70127;BME280;57491;42.694;23.314;2023-10-09T11:26:51;95698.38;;;40.68;9.48
70127;BME280;57491;42.694;23.314;2023-10-09T11:29:22;95686.72;;;40.36;8.12
70127;BME280;57491;42.694;23.314;2023-10-09T11:32:00;95672.28;;;39.30;9.69
70127;BME280;57491;42.694;23.314;2023-10-09T11:34:28;95676.72;;;39.50;9.30
70127;BME280;57491;42.694;23.314;2023-10-09T11:36:58;95691.13;;;39.35;9.49
70127;BME280;57491;42.694;23.314;2023-10-09T11:39:28;95693.09;;;40.75;8.18
70127;BME280;57491;42.694;23.314;2023-10-09T11:42:07;95680.69;;;41.55;7.99
70127;BME280;57491;42.694;23.314;2023-10-09T11:44:39;95672.50;;;42.23;7.84
70127;BME280;57491;42.694;23.314;2023-10-09T11:47:07;95677.94;;;41.97;7.09
70127;BME280;57491;42.694;23.314;2023-10-09T11:49:59;95664.47;;;41.04;7.83
70127;BME280;57491;42.694;23.314;2023-10-09T11:52:56;95660.34;;;41.52;7.71
70127;BME280;57491;42.694;23.314;2023-10-09T11:55:37;95670.00;;;41.46;7.67
70127;BME280;57491;42.694;23.314;2023-10-09T11:58:05;95650.91;;;41.27;8.38
70127;BME280;57491;42.694;23.314;2023-10-09T12:00:34;95647.81;;;42.42;7.59
70127;BME280;57491;42.694;23.314;2023-10-09T12:03:12;95644.25;;;42.64;7.38
70127;BME280;57491;42.694;23.314;2023-10-09T12:05:40;95628.59;;;42.91;7.55
70127;BME280;57491;42.694;23.314;2023-10-09T12:08:12;95631.13;;;43.81;7.22
70127;BME280;57491;42.694;23.314;2023-10-09T12:10:41;95627.81;;;44.63;7.17
70127;BME280;57491;42.694;23.314;2023-10-09T12:13:10;95625.06;;;44.63;6.65
70127;BME280;57491;42.694;23.314;2023-10-09T12:15:38;95621.50;;;45.39;6.56
70127;BME280;57491;42.694;23.314;2023-10-09T12:18:06;95621.53;;;45.70;6.48
70127;BME280;57491;42.694;23.314;2023-10-09T12:20:41;95615.63;;;45.61;6.13
70127;BME280;57491;42.694;23.314;2023-10-09T12:23:13;95607.00;;;46.05;6.24
70127;BME280;57491;42.694;23.314;2023-10-09T12:25:40;95617.63;;;46.25;5.63
70127;BME280;57491;42.694;23.314;2023-10-09T12:28:12;95614.47;;;46.01;5.38
70127;BME280;57491;42.694;23.314;2023-10-09T12:30:40;95615.22;;;46.44;5.85
70127;BME280;57491;42.694;23.314;2023-10-09T12:33:08;95604.03;;;47.05;5.27
70127;BME280;57491;42.694;23.314;2023-10-09T12:35:39;95601.88;;;46.25;5.30
70127;BME280;57491;42.694;23.314;2023-10-09T12:38:07;95592.06;;;45.53;6.31
70127;BME280;57491;42.694;23.314;2023-10-09T12:40:38;95593.69;;;44.54;5.64
70127;BME280;57491;42.694;23.314;2023-10-09T12:43:07;95580.81;;;43.99;6.02
70127;BME280;57491;42.694;23.314;2023-10-09T12:45:43;95560.22;;;45.27;5.96
70127;BME280;57491;42.694;23.314;2023-10-09T12:48:11;95579.91;;;45.44;4.94
70127;BME280;57491;42.694;23.314;2023-10-09T12:50:40;95572.06;;;45.60;5.41
70127;BME280;57491;42.694;23.314;2023-10-09T12:53:10;95570.91;;;45.96;5.28
70127;BME280;57491;42.694;23.314;2023-10-09T12:55:43;95562.66;;;46.07;5.96
70127;BME280;57491;42.694;23.314;2023-10-09T12:58:12;95561.81;;;45.28;5.70
70127;BME280;57491;42.694;23.314;2023-10-09T13:00:43;95561.09;;;45.53;5.66
70127;BME280;57491;42.694;23.314;2023-10-09T13:03:15;95562.66;;;45.64;5.46
70127;BME280;57491;42.694;23.314;2023-10-09T13:05:46;95551.81;;;46.80;4.98
70127;BME280;57491;42.694;23.314;2023-10-09T13:08:22;95545.28;;;46.45;5.29
70127;BME280;57491;42.694;23.314;2023-10-09T13:10:51;95539.88;;;45.53;5.46
70127;BME280;57491;42.694;23.314;2023-10-09T13:13:27;95529.22;;;45.09;5.75
70127;BME280;57491;42.694;23.314;2023-10-09T13:16:13;95528.13;;;43.73;5.92
70127;BME280;57491;42.694;23.314;2023-10-09T13:18:48;95523.75;;;41.94;7.03
70127;BME280;57491;42.694;23.314;2023-10-09T13:21:20;95494.59;;;39.57;8.18
70127;BME280;57491;42.694;23.314;2023-10-09T13:23:47;95516.28;;;37.50;9.33
70127;BME280;57491;42.694;23.314;2023-10-09T13:26:15;95518.81;;;36.03;10.89
70127;BME280;57491;42.694;23.314;2023-10-09T13:28:50;95513.19;;;34.47;11.50
70127;BME280;57491;42.694;23.314;2023-10-09T13:31:20;95502.34;;;33.31;11.05
70127;BME280;57491;42.694;23.314;2023-10-09T13:33:52;95495.00;;;32.03;11.53
70127;BME280;57491;42.694;23.314;2023-10-09T13:36:21;95512.47;;;30.96;12.80
70127;BME280;57491;42.694;23.314;2023-10-09T13:38:53;95507.44;;;29.68;12.75
70127;BME280;57491;42.694;23.314;2023-10-09T13:41:21;95505.22;;;29.33;14.22